KEDW

Edwards AFB Airport

Edwards, California, USA
METAR KEDW 232258Z 07007KT 90SM SCT300 17/M09 A3019 RMK AO2A SLP226 T01651087
Observed Flight Rules
Jan-23 @ 22:58 UTC (22 minutes ago) Visual Flight Rules
Wind Visibility Clouds
70° at 7 knots 90 miles
  • Scattered at 30,000' AGL
Temperatures Readings
Current 17°C / 63°F
Dewpoint -9°C / 16°F
Humidity 16%
Altimeter 30.19" Hg
Pressure 1022.6 hPa
Elevation 702
METAR KEDW 232258Z 07007KT 90SM SCT300 17/M09 A3019 RMK AO2A SLP226 T01651087
Observed Flight Rules
Jan-23 @ 22:58 UTC
(22 minutes ago)
VFR
Wind Visibility
70° at 7 knots 90 miles
Clouds
  • Scattered at 30,000' AGL
Temperature Dewpoint
17°C / 63°F -9°C / 16°F
Humidity Altimeter Pressure
16% 30.19" Hg 1022.6 hPa